Beaverton, MI

3:55 AM EDT on September 02, 2015 (GMT -0400)
Mills, North Midland County | | Change Station
CLOSE
Current Station
Personal Weather Station
Location: Midland, MI
Elevation: 682 ft
Nearby Weather Stations

Elev 682 ft 43.81 °N, 84.23 °W | Updated 49 seconds ago

Partly Cloudy
Partly Cloudy
68.4 °F
Feels Like 68.4 °F
N
0.0
Wind Variable Wind from South
Gusts 0.0 mph

Today
High -- | Low -- °F
--% Chance of Precip.
Yesterday
High -- | Low -- °F
Precip. -- in
7:01 AM 8:12 PM
Waning Gibbous, 82% visible
Pressure 30.01 in
Visibility 0.2 miles
Clouds
Dew Point 68 °F
Humidity 99%
Rainfall 0.00 in
Snow Depth Not available.
UV Not available.
Pollen 11.00 out of 12
Air Quality Not available.
Flu Activity Not available.
METAR KIKW 020732Z AUTO 00000KT 1/4SM FG VV002 20/19 A3001 RMK AO2 T01990194
Pressure 30.01 in
Visibility 0.2 miles
Clouds
Dew Point 68 °F
Humidity 99%
Rainfall 0.00 in
Snow Depth Not available.
UV Not available.
Pollen 11.00 out of 12
Air Quality Not available.
Flu Activity Not available.
METAR KIKW 020732Z AUTO 00000KT 1/4SM FG VV002 20/19 A3001 RMK AO2 T01990194
Nowcast | as of 3:00 am EDT on September 2, 2015

At 4 am...partly cloudy. Areas of fog. Temperature 69. Light winds. At 6 am...partly cloudy. Areas of fog. Temperature 67. Light winds. At 8 am...partly cloudy. Areas of fog. Temperature 68. Light winds. At 10 am...partly cloudy. Temperature 75. Light winds.

×

10-Day Weather Forecast

×

Almanac

Astronomy

Sep. 02, 2015 Rise Set
Actual Time
Civil Twilight
Nautical Twilight
Astronomical Twilight
Moon
Length of Visible Light
Length of Day
Tomorrow will be .
, % of the Moon is Illuminated

Today's Extremes

State Highs State Lows

Community

WunderPhotos

Upload Photos

1,851,723 photos uploaded!

WunderBlogs® & News

Nearby

Air Quality

  Air Quality AQ Index Pollutant
Not available.

Snow Depth

Station Depth Elevation

Earthquake Activity

City Distance Mag. Time & Date
Minimum magnitude displayed is 2.5.

Coastal Water Temperatures

Place Temperature

Stations

Nearby Weather Stations

Station Location Temp. Windchill Dew Point Humidity Wind Precip. Elev Updated Type